createdAt,value
2023-12-18T00:02:24.219Z,30.90
2023-12-18T00:04:51.215Z,30.90
2023-12-18T00:07:18.096Z,30.90
2023-12-18T00:09:45.042Z,30.90
2023-12-18T00:12:12.059Z,30.90
2023-12-18T00:14:39.142Z,30.80
2023-12-18T00:17:06.053Z,30.90
2023-12-18T00:19:33.151Z,30.70
2023-12-18T00:22:00.155Z,30.70
2023-12-18T00:24:27.167Z,30.70
2023-12-18T00:26:54.066Z,30.70
2023-12-18T00:29:20.990Z,30.80
2023-12-18T00:31:49.160Z,30.90
2023-12-18T00:34:16.232Z,30.90
2023-12-18T00:36:43.778Z,30.90
2023-12-18T00:39:12.179Z,30.90
2023-12-18T00:41:39.106Z,31.00
2023-12-18T00:44:06.074Z,30.90
2023-12-18T00:46:32.982Z,31.00
2023-12-18T00:49:00.066Z,31.00
2023-12-18T00:51:27.103Z,31.10
2023-12-18T00:53:54.035Z,31.10
2023-12-18T00:56:20.922Z,31.10
2023-12-18T00:58:48.460Z,31.10
2023-12-18T01:01:15.388Z,31.10
2023-12-18T01:03:42.455Z,31.00
2023-12-18T01:06:09.614Z,30.90
2023-12-18T01:08:36.592Z,30.90
2023-12-18T01:11:04.615Z,30.80
2023-12-18T01:13:31.650Z,30.80
2023-12-18T01:15:59.991Z,30.80
2023-12-18T01:18:27.044Z,30.70
2023-12-18T01:20:53.996Z,30.70
2023-12-18T01:23:21.194Z,30.60
2023-12-18T01:25:48.091Z,30.60
2023-12-18T01:28:15.017Z,30.60
2023-12-18T01:30:42.086Z,30.60
2023-12-18T01:33:09.184Z,30.50
2023-12-18T01:35:36.369Z,30.50
2023-12-18T01:38:03.340Z,30.50
2023-12-18T01:40:30.316Z,30.50
2023-12-18T01:42:57.466Z,30.50
2023-12-18T01:45:24.449Z,30.50
2023-12-18T01:47:51.792Z,30.40
2023-12-18T01:50:19.314Z,31.20
2023-12-18T01:52:46.646Z,30.50
2023-12-18T01:55:14.843Z,30.40
2023-12-18T01:57:42.345Z,30.40
2023-12-18T02:00:10.658Z,30.50
2023-12-18T02:02:38.132Z,30.50
2023-12-18T02:05:05.321Z,30.40
2023-12-18T02:07:34.344Z,30.40
2023-12-18T02:10:01.833Z,30.50
2023-12-18T02:12:28.982Z,30.50
2023-12-18T02:14:57.502Z,30.40
2023-12-18T02:17:24.452Z,30.50
2023-12-18T02:20:04.257Z,30.50
2023-12-18T02:22:47.157Z,30.60
2023-12-18T02:25:16.205Z,30.50
2023-12-18T02:27:45.099Z,30.60
2023-12-18T02:30:19.182Z,30.60
2023-12-18T02:32:46.483Z,30.70
2023-12-18T02:35:13.610Z,30.70
2023-12-18T02:37:40.996Z,30.80
2023-12-18T02:40:08.328Z,30.80
2023-12-18T02:42:35.478Z,30.90
2023-12-18T02:45:03.487Z,30.90
2023-12-18T02:47:30.840Z,31.00
2023-12-18T02:49:57.799Z,31.00
2023-12-18T02:52:24.705Z,31.00
2023-12-18T02:54:51.633Z,30.90
2023-12-18T02:57:18.586Z,30.80
2023-12-18T02:59:45.568Z,30.80
2023-12-18T03:02:12.599Z,30.80
2023-12-18T03:04:40.855Z,30.60
2023-12-18T03:07:08.358Z,30.60
2023-12-18T03:09:35.339Z,30.60
2023-12-18T03:12:02.425Z,30.50
2023-12-18T03:14:29.745Z,30.50
2023-12-18T03:16:56.770Z,30.40
2023-12-18T03:19:23.847Z,30.40
2023-12-18T03:21:50.970Z,30.50
2023-12-18T03:24:18.054Z,30.40
2023-12-18T03:26:45.015Z,30.40
2023-12-18T03:29:11.925Z,30.30
2023-12-18T03:31:38.866Z,30.20
2023-12-18T03:34:05.858Z,30.10
2023-12-18T03:36:32.883Z,30.10
2023-12-18T03:38:59.913Z,30.10
2023-12-18T03:41:26.821Z,30.00
2023-12-18T03:43:53.717Z,29.90
2023-12-18T03:46:20.677Z,29.80
2023-12-18T03:48:47.705Z,29.80
2023-12-18T03:51:14.736Z,29.70
2023-12-18T03:53:41.686Z,29.70
2023-12-18T03:56:08.624Z,29.60
2023-12-18T03:58:35.566Z,29.60
2023-12-18T04:01:02.745Z,29.70
2023-12-18T04:03:33.309Z,29.70
2023-12-18T04:06:01.127Z,29.70
2023-12-18T04:08:28.521Z,29.70
2023-12-18T04:10:55.463Z,29.70
2023-12-18T04:13:22.437Z,29.70
2023-12-18T04:15:49.415Z,29.70
2023-12-18T04:18:17.079Z,29.60
2023-12-18T04:20:44.136Z,29.50
2023-12-18T04:23:11.695Z,29.50
2023-12-18T04:25:38.652Z,29.50
2023-12-18T04:28:05.701Z,29.40
2023-12-18T04:30:32.793Z,29.40
2023-12-18T04:33:00.465Z,29.50
2023-12-18T04:35:27.460Z,29.50
2023-12-18T04:37:54.421Z,29.60
2023-12-18T04:40:21.356Z,29.60
2023-12-18T04:42:48.304Z,29.60
2023-12-18T04:45:15.738Z,29.60
2023-12-18T04:47:42.963Z,29.60
2023-12-18T04:50:10.160Z,30.10
2023-12-18T04:52:37.137Z,29.60
2023-12-18T04:55:04.194Z,29.60
2023-12-18T04:57:31.343Z,29.70
2023-12-18T04:59:58.401Z,29.70
2023-12-18T05:02:25.311Z,29.70
2023-12-18T05:04:52.440Z,29.70
2023-12-18T05:07:19.449Z,29.70
2023-12-18T05:09:48.970Z,29.70
2023-12-18T05:12:16.314Z,29.70
2023-12-18T05:14:43.272Z,29.70
2023-12-18T05:17:10.365Z,29.70
2023-12-18T05:19:37.353Z,29.60
2023-12-18T05:22:04.874Z,29.60
2023-12-18T05:24:31.835Z,29.70
2023-12-18T05:26:58.787Z,29.60
2023-12-18T05:29:25.712Z,29.60
2023-12-18T05:31:53.227Z,29.60
2023-12-18T05:34:20.368Z,29.60
2023-12-18T05:36:47.380Z,29.60
2023-12-18T05:39:14.365Z,29.60
2023-12-18T05:41:41.322Z,29.70
2023-12-18T05:44:08.274Z,29.60
2023-12-18T05:46:35.208Z,29.60
2023-12-18T05:49:02.224Z,29.60
2023-12-18T05:51:29.697Z,29.60
2023-12-18T05:53:56.653Z,29.60
2023-12-18T05:56:23.613Z,29.60
2023-12-18T05:58:50.993Z,29.50
2023-12-18T06:01:18.828Z,29.50
2023-12-18T06:03:45.932Z,29.40
2023-12-18T06:06:12.983Z,29.40
2023-12-18T06:08:39.954Z,29.30
2023-12-18T06:11:06.886Z,29.30
2023-12-18T06:13:33.863Z,29.30
2023-12-18T06:16:01.472Z,29.20
2023-12-18T06:18:29.001Z,29.20
2023-12-18T06:20:56.054Z,29.20
2023-12-18T06:23:22.981Z,29.20
2023-12-18T06:25:49.913Z,29.30
2023-12-18T06:28:17.040Z,29.30
2023-12-18T06:30:44.087Z,29.90
2023-12-18T06:33:11.170Z,29.40
2023-12-18T06:35:38.200Z,29.30
2023-12-18T06:38:05.145Z,29.30
2023-12-18T06:40:32.061Z,29.30
2023-12-18T06:42:59.154Z,29.30
2023-12-18T06:45:26.174Z,29.30
2023-12-18T06:47:53.170Z,29.80
2023-12-18T06:50:20.839Z,29.20
2023-12-18T06:52:47.854Z,29.30
2023-12-18T06:55:15.305Z,29.20
2023-12-18T06:57:42.364Z,29.20
2023-12-18T07:00:09.696Z,29.20
2023-12-18T07:02:37.092Z,29.20
2023-12-18T07:05:04.167Z,29.10
2023-12-18T07:07:31.318Z,29.20
2023-12-18T07:09:58.383Z,29.10
2023-12-18T07:12:25.477Z,29.20
2023-12-18T07:14:52.587Z,29.10
2023-12-18T07:17:19.559Z,29.20
2023-12-18T07:19:46.509Z,29.10
2023-12-18T07:22:13.561Z,29.10
2023-12-18T07:24:40.600Z,29.10
2023-12-18T07:27:07.613Z,29.00
2023-12-18T07:29:34.638Z,29.00
2023-12-18T07:32:01.625Z,28.90
2023-12-18T07:34:28.968Z,29.00
2023-12-18T07:36:56.093Z,28.90
2023-12-18T07:39:23.183Z,29.00
2023-12-18T07:41:50.133Z,28.90
2023-12-18T07:44:17.112Z,29.00
2023-12-18T07:46:44.051Z,29.00
2023-12-18T07:49:11.119Z,29.00
2023-12-18T07:51:39.413Z,28.90
2023-12-18T07:54:06.521Z,28.90
2023-12-18T07:56:33.530Z,29.00
2023-12-18T07:59:00.729Z,29.00
2023-12-18T08:01:27.698Z,29.00
2023-12-18T08:03:54.728Z,29.00
2023-12-18T08:06:22.164Z,29.10
2023-12-18T08:08:49.278Z,29.10
2023-12-18T08:11:16.323Z,29.10
2023-12-18T08:13:43.914Z,29.30
2023-12-18T08:16:12.001Z,29.10
2023-12-18T08:18:39.212Z,29.10
2023-12-18T08:21:06.449Z,29.10
2023-12-18T08:23:33.478Z,29.10
2023-12-18T08:26:00.488Z,29.00
2023-12-18T08:28:27.447Z,29.10
2023-12-18T08:30:54.402Z,29.10
2023-12-18T08:33:21.758Z,29.10
2023-12-18T08:35:48.897Z,29.20
2023-12-18T08:38:15.914Z,29.20
2023-12-18T08:40:43.094Z,29.20
2023-12-18T08:43:10.032Z,29.20
2023-12-18T08:45:37.938Z,29.20
2023-12-18T08:48:05.228Z,29.30
2023-12-18T08:50:32.456Z,29.40
2023-12-18T08:52:59.479Z,29.50
2023-12-18T08:55:46.142Z,29.50
2023-12-18T08:58:13.071Z,29.60
2023-12-18T09:00:40.064Z,29.70
2023-12-18T09:03:07.281Z,29.70
2023-12-18T09:05:36.580Z,29.80
2023-12-18T09:08:06.353Z,29.70
2023-12-18T09:10:34.351Z,29.60
2023-12-18T09:13:01.632Z,29.60
2023-12-18T09:15:31.077Z,29.50
2023-12-18T09:17:58.257Z,29.50
2023-12-18T09:20:25.273Z,29.50
2023-12-18T09:22:53.419Z,29.50
2023-12-18T09:25:20.441Z,29.50
2023-12-18T09:27:47.415Z,29.50
2023-12-18T09:30:14.887Z,29.50
2023-12-18T09:32:42.209Z,29.50
2023-12-18T09:35:09.422Z,29.50
2023-12-18T09:37:36.451Z,30.00
2023-12-18T09:40:04.744Z,29.60
2023-12-18T09:42:33.634Z,29.70
2023-12-18T09:45:03.331Z,29.70
2023-12-18T09:47:31.465Z,29.70
2023-12-18T09:49:59.384Z,29.80
2023-12-18T09:52:28.765Z,29.80
2023-12-18T09:54:56.314Z,29.90
2023-12-18T09:57:24.922Z,29.90
2023-12-18T09:59:52.728Z,29.90
2023-12-18T10:02:21.825Z,29.90
2023-12-18T10:04:49.344Z,29.90
2023-12-18T10:07:17.711Z,30.00
2023-12-18T10:09:47.202Z,30.00
2023-12-18T10:12:14.723Z,30.00
2023-12-18T10:14:41.792Z,30.00
2023-12-18T10:17:08.740Z,30.00
2023-12-18T10:19:35.948Z,30.00
2023-12-18T10:22:05.180Z,30.00
2023-12-18T10:24:32.134Z,30.00
2023-12-18T10:26:59.097Z,30.00
2023-12-18T10:29:25.986Z,30.00
2023-12-18T10:31:53.009Z,30.00
2023-12-18T10:34:21.560Z,30.00
2023-12-18T10:36:48.704Z,30.00
2023-12-18T10:39:19.934Z,30.10
2023-12-18T10:41:50.690Z,30.80
2023-12-18T10:44:18.017Z,30.20
2023-12-18T10:46:45.720Z,30.20
2023-12-18T10:49:13.615Z,30.20
2023-12-18T10:51:41.256Z,30.40
2023-12-18T10:54:09.157Z,30.50
2023-12-18T10:56:37.214Z,31.40
2023-12-18T10:59:04.470Z,31.50
2023-12-18T11:01:31.478Z,30.80
2023-12-18T11:03:58.627Z,30.90
2023-12-18T11:06:26.680Z,30.90
2023-12-18T11:08:53.640Z,31.00
2023-12-18T11:11:21.810Z,31.00
2023-12-18T11:13:48.760Z,31.00
2023-12-18T11:16:54.171Z,31.00
2023-12-18T11:19:36.196Z,31.10
2023-12-18T11:22:05.773Z,31.80
2023-12-18T11:24:39.424Z,31.20
2023-12-18T11:27:06.848Z,31.20
2023-12-18T11:29:43.327Z,31.20
2023-12-18T11:32:34.385Z,31.10
2023-12-18T11:35:02.392Z,31.10
2023-12-18T11:37:30.379Z,31.20
2023-12-18T11:39:58.348Z,31.20
2023-12-18T11:42:45.530Z,31.20
2023-12-18T11:45:13.292Z,31.20
2023-12-18T11:47:40.918Z,31.20
2023-12-18T11:50:08.143Z,31.30
2023-12-18T11:52:35.357Z,31.30
2023-12-18T11:55:02.714Z,31.30
2023-12-18T11:57:30.806Z,31.30
2023-12-18T11:59:57.903Z,31.20
2023-12-18T12:02:24.999Z,31.10
2023-12-18T12:04:52.095Z,31.10
2023-12-18T12:07:19.318Z,31.10
2023-12-18T12:09:57.655Z,31.00
2023-12-18T12:12:24.634Z,31.00
2023-12-18T12:14:51.630Z,31.00
2023-12-18T12:17:20.694Z,31.00
2023-12-18T12:19:48.043Z,31.00
2023-12-18T12:22:15.682Z,30.90
2023-12-18T12:24:42.661Z,31.60
2023-12-18T12:27:09.789Z,31.60
2023-12-18T12:29:37.101Z,30.80
2023-12-18T12:32:11.005Z,30.90
2023-12-18T12:34:41.839Z,31.00
2023-12-18T12:37:10.224Z,30.90
2023-12-18T12:39:37.159Z,30.90
2023-12-18T12:42:04.962Z,30.80
2023-12-18T12:44:31.994Z,30.80
2023-12-18T12:46:59.466Z,30.70
2023-12-18T12:49:26.561Z,30.60
2023-12-18T12:51:53.696Z,30.60
2023-12-18T12:54:20.722Z,30.60
2023-12-18T12:56:47.714Z,30.60
2023-12-18T12:59:14.825Z,30.60
2023-12-18T13:01:41.835Z,30.60
2023-12-18T13:04:09.155Z,30.70
2023-12-18T13:06:36.306Z,30.70
2023-12-18T13:09:04.293Z,30.70
2023-12-18T13:11:32.416Z,30.70
2023-12-18T13:14:08.229Z,31.50
2023-12-18T13:16:38.906Z,30.80
2023-12-18T13:19:05.943Z,30.80
2023-12-18T13:21:33.107Z,30.80
2023-12-18T13:24:00.061Z,30.70
2023-12-18T13:26:28.152Z,30.60
2023-12-18T13:28:55.137Z,30.50
2023-12-18T13:31:22.191Z,30.60
2023-12-18T13:33:49.312Z,30.50
2023-12-18T13:36:16.508Z,30.80
2023-12-18T13:38:43.447Z,30.70
2023-12-18T13:41:11.962Z,30.70
2023-12-18T13:43:40.639Z,30.70
2023-12-18T13:46:07.752Z,30.70
2023-12-18T13:48:34.885Z,30.70
2023-12-18T13:51:01.863Z,30.70
2023-12-18T13:53:29.030Z,30.70
2023-12-18T13:55:55.994Z,30.70
2023-12-18T13:58:23.004Z,30.70
2023-12-18T14:00:50.106Z,30.80
2023-12-18T14:03:17.252Z,30.80
2023-12-18T14:05:44.274Z,30.80
2023-12-18T14:08:11.242Z,30.80
2023-12-18T14:10:38.176Z,30.70
2023-12-18T14:13:05.250Z,30.80
2023-12-18T14:15:32.364Z,30.80
2023-12-18T14:17:59.391Z,30.90
2023-12-18T14:20:28.660Z,30.80
2023-12-18T14:22:55.690Z,30.80
2023-12-18T14:25:22.640Z,30.70
2023-12-18T14:27:49.821Z,30.70
2023-12-18T14:30:18.738Z,30.70
2023-12-18T14:32:47.771Z,30.50
2023-12-18T14:35:15.199Z,30.40
2023-12-18T14:37:42.819Z,30.30
2023-12-18T14:40:11.533Z,30.20
2023-12-18T14:42:38.774Z,30.80
2023-12-18T14:45:06.048Z,30.00
2023-12-18T14:47:33.326Z,30.00
2023-12-18T14:50:00.683Z,30.00
2023-12-18T14:52:27.697Z,30.00
2023-12-18T14:54:55.583Z,30.00
2023-12-18T14:57:23.827Z,30.00
2023-12-18T14:59:50.825Z,30.00
2023-12-18T15:02:18.239Z,30.00
2023-12-18T15:04:45.478Z,30.00
2023-12-18T15:07:12.858Z,30.00
2023-12-18T15:09:39.936Z,30.00
2023-12-18T15:12:07.154Z,30.00
2023-12-18T15:14:34.092Z,30.00
2023-12-18T15:17:04.802Z,29.90
2023-12-18T15:19:33.601Z,29.90
2023-12-18T15:22:01.487Z,29.80
2023-12-18T15:24:28.687Z,29.80
2023-12-18T15:26:55.696Z,29.80
2023-12-18T15:29:22.626Z,29.70
2023-12-18T15:31:49.650Z,29.70
2023-12-18T15:34:16.719Z,29.70
2023-12-18T15:36:43.843Z,29.70
2023-12-18T15:39:10.936Z,29.60
2023-12-18T15:41:39.215Z,29.60
2023-12-18T15:44:08.285Z,29.60
2023-12-18T15:46:35.456Z,29.60
2023-12-18T15:49:02.583Z,29.60
2023-12-18T15:51:29.856Z,29.50
2023-12-18T15:53:56.855Z,29.50
2023-12-18T15:56:24.014Z,29.60
2023-12-18T15:58:51.264Z,29.60
2023-12-18T16:01:18.405Z,29.50
2023-12-18T16:03:45.566Z,29.50
2023-12-18T16:06:12.816Z,29.50
2023-12-18T16:08:40.153Z,29.50
2023-12-18T16:11:07.217Z,29.40
2023-12-18T16:13:34.227Z,29.30
2023-12-18T16:16:01.219Z,29.30
2023-12-18T16:18:28.952Z,29.30
2023-12-18T16:20:56.006Z,29.30
2023-12-18T16:23:23.467Z,29.30
2023-12-18T16:25:50.456Z,29.30
2023-12-18T16:28:17.590Z,29.30
2023-12-18T16:30:56.310Z,29.30
2023-12-18T16:33:25.646Z,29.30
2023-12-18T16:35:52.990Z,29.30
2023-12-18T16:38:20.204Z,29.20
2023-12-18T16:40:51.412Z,29.20
2023-12-18T16:43:18.588Z,29.20
2023-12-18T16:45:45.865Z,29.20
2023-12-18T16:48:13.144Z,29.10
2023-12-18T16:50:40.183Z,29.20
2023-12-18T16:53:07.388Z,29.10
2023-12-18T16:55:34.591Z,29.10
2023-12-18T16:58:02.509Z,29.00
2023-12-18T17:00:33.018Z,29.00
2023-12-18T17:03:01.201Z,29.10
2023-12-18T17:05:28.600Z,29.10
2023-12-18T17:07:55.683Z,29.10
2023-12-18T17:10:22.799Z,29.10
2023-12-18T17:12:49.905Z,29.10
2023-12-18T17:15:17.391Z,29.10
2023-12-18T17:17:44.668Z,29.10
2023-12-18T17:20:11.832Z,29.10
2023-12-18T17:22:39.048Z,29.10
2023-12-18T17:25:06.220Z,29.10
2023-12-18T17:27:33.229Z,29.00
2023-12-18T17:30:00.194Z,29.00
2023-12-18T17:32:29.435Z,29.00
2023-12-18T17:34:58.250Z,29.00
2023-12-18T17:37:25.694Z,29.00
2023-12-18T17:39:52.957Z,29.00
2023-12-18T17:42:20.300Z,28.90
2023-12-18T17:44:50.885Z,28.90
2023-12-18T17:47:18.088Z,28.90
2023-12-18T17:49:45.191Z,28.90
2023-12-18T17:52:12.227Z,28.90
2023-12-18T17:54:39.258Z,29.00
2023-12-18T17:57:06.334Z,29.00
2023-12-18T17:59:33.305Z,29.00
2023-12-18T18:02:00.257Z,29.00
2023-12-18T18:04:27.379Z,29.00
2023-12-18T18:06:54.833Z,29.00
2023-12-18T18:09:21.854Z,28.90
2023-12-18T18:11:48.861Z,28.90
2023-12-18T18:14:15.947Z,28.90
2023-12-18T18:16:42.884Z,28.80
2023-12-18T18:19:10.048Z,28.90
2023-12-18T18:21:37.380Z,28.80
2023-12-18T18:24:04.769Z,28.80
2023-12-18T18:26:31.816Z,28.80
2023-12-18T18:28:58.907Z,28.80
2023-12-18T18:31:26.005Z,28.80
2023-12-18T18:33:53.300Z,28.80
2023-12-18T18:36:22.550Z,28.80
2023-12-18T18:38:49.590Z,28.80
2023-12-18T18:41:17.203Z,28.80
2023-12-18T18:43:44.201Z,28.80
2023-12-18T18:46:14.106Z,28.80
2023-12-18T18:48:42.275Z,28.80
2023-12-18T18:51:09.580Z,28.80
2023-12-18T18:53:36.854Z,28.80
2023-12-18T18:56:06.909Z,28.80
2023-12-18T18:58:37.046Z,28.70
2023-12-18T19:01:04.502Z,28.80
2023-12-18T19:03:32.002Z,28.80
2023-12-18T19:06:00.359Z,28.80
2023-12-18T19:08:27.351Z,28.80
2023-12-18T19:10:55.141Z,28.80
2023-12-18T19:13:22.825Z,28.80
2023-12-18T19:15:51.487Z,28.80
2023-12-18T19:18:19.366Z,28.90
2023-12-18T19:20:46.990Z,28.90
2023-12-18T19:23:13.987Z,28.90
2023-12-18T19:25:41.071Z,28.80
2023-12-18T19:28:08.401Z,28.80
2023-12-18T19:30:35.492Z,28.70
2023-12-18T19:33:02.652Z,28.60
2023-12-18T19:35:30.065Z,28.60
2023-12-18T19:37:57.419Z,28.50
2023-12-18T19:40:24.361Z,28.50
2023-12-18T19:42:51.437Z,28.40
2023-12-18T19:45:18.480Z,28.40
2023-12-18T19:47:45.796Z,28.30
2023-12-18T19:50:13.527Z,28.40
2023-12-18T19:52:40.881Z,28.30
2023-12-18T19:55:08.070Z,28.30
2023-12-18T19:57:38.024Z,28.20
2023-12-18T20:00:05.914Z,28.20
2023-12-18T20:02:33.468Z,28.30
2023-12-18T20:05:01.186Z,28.20
2023-12-18T20:07:28.659Z,28.20
2023-12-18T20:09:55.927Z,28.20
2023-12-18T20:12:23.061Z,28.20
2023-12-18T20:14:50.142Z,28.20
2023-12-18T20:17:17.693Z,28.30
2023-12-18T20:19:44.811Z,28.30
2023-12-18T20:22:11.883Z,28.40
2023-12-18T20:24:38.908Z,28.40
2023-12-18T20:27:05.848Z,28.40
2023-12-18T20:29:35.550Z,28.50
2023-12-18T20:32:02.727Z,28.50
2023-12-18T20:34:29.990Z,28.50
2023-12-18T20:36:57.081Z,28.60
2023-12-18T20:39:24.076Z,28.50
2023-12-18T20:41:51.010Z,28.60
2023-12-18T20:44:18.585Z,28.60
2023-12-18T20:46:45.824Z,28.60
2023-12-18T20:49:13.251Z,28.60
2023-12-18T20:51:41.324Z,28.60
2023-12-18T20:54:08.878Z,28.60
2023-12-18T20:56:37.698Z,28.60
2023-12-18T20:59:06.647Z,28.70
2023-12-18T21:01:33.846Z,28.60
2023-12-18T21:04:01.178Z,28.70
2023-12-18T21:06:30.919Z,28.60
2023-12-18T21:08:57.858Z,28.70
2023-12-18T21:11:24.770Z,28.60
2023-12-18T21:13:51.900Z,28.60
2023-12-18T21:16:18.929Z,28.60
2023-12-18T21:18:45.927Z,28.70
2023-12-18T21:21:14.671Z,28.70
2023-12-18T21:23:41.721Z,28.70
2023-12-18T21:26:10.986Z,28.70
2023-12-18T21:28:37.951Z,28.70
2023-12-18T21:31:04.986Z,28.70
2023-12-18T21:33:32.212Z,28.80
2023-12-18T21:35:59.206Z,28.90
2023-12-18T21:38:26.153Z,29.00
2023-12-18T21:40:53.084Z,29.00
2023-12-18T21:43:20.090Z,29.10
2023-12-18T21:45:47.129Z,29.10
2023-12-18T21:48:14.187Z,29.10
2023-12-18T21:50:41.721Z,29.20
2023-12-18T21:53:08.685Z,29.10
2023-12-18T21:55:37.418Z,29.10
2023-12-18T21:58:04.518Z,29.10
2023-12-18T22:00:31.519Z,29.00
2023-12-18T22:02:58.506Z,29.00
2023-12-18T22:05:25.536Z,28.90
2023-12-18T22:07:52.576Z,28.90
2023-12-18T22:10:20.272Z,29.00
2023-12-18T22:12:47.611Z,28.90
2023-12-18T22:15:14.793Z,28.90
2023-12-18T22:17:41.950Z,29.00
2023-12-18T22:20:11.544Z,28.90
2023-12-18T22:22:39.306Z,29.00
2023-12-18T22:25:06.598Z,29.00
2023-12-18T22:27:33.625Z,29.00
2023-12-18T22:30:00.617Z,29.00
2023-12-18T22:32:28.078Z,29.00
2023-12-18T22:34:55.201Z,29.00
2023-12-18T22:37:22.199Z,29.00
2023-12-18T22:39:49.138Z,28.90
2023-12-18T22:42:16.160Z,29.50
2023-12-18T22:44:43.520Z,28.90
2023-12-18T22:47:11.804Z,28.90
2023-12-18T22:49:38.889Z,28.90
2023-12-18T22:52:06.081Z,28.80
2023-12-18T22:54:33.055Z,28.80
2023-12-18T22:56:59.974Z,28.70
2023-12-18T22:59:26.924Z,28.70
2023-12-18T23:01:54.645Z,28.70
2023-12-18T23:04:21.798Z,28.70
2023-12-18T23:06:50.698Z,28.70
2023-12-18T23:09:17.866Z,28.70
2023-12-18T23:11:44.872Z,28.70
2023-12-18T23:14:11.890Z,28.60
2023-12-18T23:16:38.973Z,28.60
2023-12-18T23:19:05.925Z,28.60
2023-12-18T23:21:33.339Z,28.60
2023-12-18T23:24:02.379Z,28.60
2023-12-18T23:26:29.778Z,28.50
2023-12-18T23:28:56.672Z,28.50
2023-12-18T23:31:23.834Z,28.60
2023-12-18T23:33:51.112Z,29.20
2023-12-18T23:36:18.220Z,28.70
2023-12-18T23:38:45.543Z,28.70
2023-12-18T23:41:13.920Z,28.80
2023-12-18T23:43:40.863Z,28.80
2023-12-18T23:46:08.044Z,28.80
2023-12-18T23:48:35.145Z,28.80
2023-12-18T23:51:02.194Z,28.80
2023-12-18T23:53:29.217Z,28.80
2023-12-18T23:55:56.123Z,28.90
2023-12-18T23:58:22.998Z,28.90
